createdAt,value
2018-11-11T00:02:21.667Z,11.88
2018-11-11T00:04:53.201Z,11.83
2018-11-11T00:07:23.358Z,11.82
2018-11-11T00:09:53.940Z,11.83
2018-11-11T00:12:25.203Z,11.84
2018-11-11T00:14:55.071Z,11.85
2018-11-11T00:17:28.716Z,11.84
2018-11-11T00:20:11.070Z,11.85
2018-11-11T00:22:47.631Z,11.83
2018-11-11T00:25:17.243Z,11.74
2018-11-11T00:27:47.532Z,11.72
2018-11-11T00:30:19.884Z,11.62
2018-11-11T00:32:57.942Z,11.59
2018-11-11T00:35:37.688Z,11.55
2018-11-11T00:38:08.710Z,11.49
2018-11-11T00:40:46.465Z,11.43
2018-11-11T00:43:23.980Z,11.41
2018-11-11T00:45:54.826Z,11.43
2018-11-11T00:48:33.734Z,11.45
2018-11-11T00:51:04.669Z,11.45
2018-11-11T00:53:41.944Z,11.44
2018-11-11T00:56:20.307Z,11.43
2018-11-11T00:58:52.116Z,11.40
2018-11-11T01:01:21.827Z,11.39
2018-11-11T01:03:53.153Z,11.40
2018-11-11T01:06:25.099Z,11.39
2018-11-11T01:08:55.277Z,11.41
2018-11-11T01:11:25.409Z,11.42
2018-11-11T01:13:56.292Z,11.44
2018-11-11T01:16:30.201Z,11.44
2018-11-11T01:19:04.472Z,11.47
2018-11-11T01:21:36.134Z,11.51
2018-11-11T01:24:05.929Z,11.56
2018-11-11T01:26:44.174Z,11.65
2018-11-11T01:29:17.557Z,11.66
2018-11-11T01:31:50.982Z,11.69
2018-11-11T01:34:21.964Z,11.68
2018-11-11T01:36:56.238Z,11.62
2018-11-11T01:39:26.586Z,11.56
2018-11-11T01:41:57.297Z,11.56
2018-11-11T01:44:27.608Z,11.57
2018-11-11T01:46:59.106Z,11.61
2018-11-11T01:49:31.290Z,11.60
2018-11-11T01:52:02.222Z,11.61
2018-11-11T01:54:32.534Z,11.62
2018-11-11T01:57:03.401Z,11.59
2018-11-11T01:59:36.212Z,11.59
2018-11-11T02:02:07.361Z,11.59
2018-11-11T02:04:39.529Z,11.54
2018-11-11T02:07:15.067Z,11.52
2018-11-11T02:09:58.304Z,11.51
2018-11-11T02:12:28.650Z,11.52
2018-11-11T02:14:58.117Z,11.59
2018-11-11T02:17:27.885Z,11.62
2018-11-11T02:19:59.365Z,11.63
2018-11-11T02:22:29.793Z,11.67
2018-11-11T02:25:03.029Z,11.77
2018-11-11T02:27:36.441Z,11.78
2018-11-11T02:30:09.556Z,11.77
2018-11-11T02:32:40.346Z,11.80
2018-11-11T02:35:10.788Z,11.82
2018-11-11T02:37:42.267Z,11.83
2018-11-11T02:40:15.157Z,11.85
2018-11-11T02:42:45.645Z,11.82
2018-11-11T02:45:17.720Z,11.80
2018-11-11T02:47:48.147Z,11.84
2018-11-11T02:50:19.678Z,11.84
2018-11-11T02:52:49.529Z,11.87
2018-11-11T02:55:22.140Z,11.91
2018-11-11T02:57:53.522Z,11.90
2018-11-11T03:00:24.352Z,11.95
2018-11-11T03:02:53.963Z,11.95
2018-11-11T03:05:25.392Z,11.96
2018-11-11T03:07:57.305Z,12.00
2018-11-11T03:10:28.569Z,11.97
2018-11-11T03:13:00.036Z,11.93
2018-11-11T03:15:32.337Z,11.88
2018-11-11T03:18:03.731Z,11.89
2018-11-11T03:20:35.360Z,11.94
2018-11-11T03:23:06.846Z,11.93
2018-11-11T03:25:37.271Z,12.01
2018-11-11T03:28:11.652Z,12.05
2018-11-11T03:30:48.775Z,12.05
2018-11-11T03:33:25.433Z,12.06
2018-11-11T03:35:56.138Z,12.09
2018-11-11T03:38:30.155Z,12.13
2018-11-11T03:41:04.123Z,12.19
2018-11-11T03:43:35.205Z,12.21
2018-11-11T03:46:04.824Z,12.22
2018-11-11T03:48:37.947Z,12.22
2018-11-11T03:51:09.007Z,12.21
2018-11-11T03:53:40.044Z,12.27
2018-11-11T03:56:12.215Z,12.22
2018-11-11T03:58:41.890Z,12.23
2018-11-11T04:01:12.549Z,12.23
2018-11-11T04:03:45.047Z,12.25
2018-11-11T04:06:14.697Z,12.25
2018-11-11T04:08:46.016Z,12.23
2018-11-11T04:11:18.014Z,12.23
2018-11-11T04:13:48.801Z,12.24
2018-11-11T04:16:19.199Z,12.27
2018-11-11T04:18:49.021Z,12.29
2018-11-11T04:21:21.155Z,12.31
2018-11-11T04:23:54.557Z,12.31
2018-11-11T04:26:25.149Z,12.25
2018-11-11T04:28:57.548Z,12.24
2018-11-11T04:31:29.903Z,12.22
2018-11-11T04:34:02.252Z,12.23
2018-11-11T04:36:31.774Z,12.21
2018-11-11T04:39:03.534Z,12.19
2018-11-11T04:41:34.053Z,12.17
2018-11-11T04:44:06.368Z,12.18
2018-11-11T04:46:36.723Z,12.18
2018-11-11T04:49:09.582Z,12.23
2018-11-11T04:51:42.002Z,12.23
2018-11-11T04:54:13.951Z,12.18
2018-11-11T04:56:43.660Z,12.16
2018-11-11T04:59:14.321Z,12.19
2018-11-11T05:01:45.003Z,12.17
2018-11-11T05:04:30.527Z,12.10
2018-11-11T05:07:01.505Z,12.09
2018-11-11T05:09:34.799Z,12.07
2018-11-11T05:12:05.481Z,12.13
2018-11-11T05:14:35.843Z,12.19
2018-11-11T05:17:07.212Z,12.16
2018-11-11T05:19:37.444Z,12.18
2018-11-11T05:22:08.847Z,12.19
2018-11-11T05:24:40.283Z,12.16
2018-11-11T05:27:11.400Z,12.16
2018-11-11T05:29:45.525Z,12.18
2018-11-11T05:32:16.157Z,12.16
2018-11-11T05:34:48.144Z,12.18
2018-11-11T05:37:19.699Z,12.19
2018-11-11T05:39:49.479Z,12.22
2018-11-11T05:42:22.839Z,12.27
2018-11-11T05:44:54.365Z,12.29
2018-11-11T05:47:25.592Z,12.35
2018-11-11T05:49:56.271Z,12.35
2018-11-11T05:52:31.001Z,12.40
2018-11-11T05:55:02.053Z,12.40
2018-11-11T05:57:31.817Z,12.42
2018-11-11T06:00:09.088Z,12.44
2018-11-11T06:02:46.768Z,12.41
2018-11-11T06:05:21.664Z,12.33
2018-11-11T06:07:53.452Z,12.29
2018-11-11T06:10:26.852Z,12.32
2018-11-11T06:12:57.916Z,12.36
2018-11-11T06:15:30.838Z,12.38
2018-11-11T06:18:02.983Z,12.35
2018-11-11T06:20:44.865Z,12.38
2018-11-11T06:23:18.758Z,12.36
2018-11-11T06:25:49.147Z,12.40
2018-11-11T06:28:19.746Z,12.42
2018-11-11T06:30:49.380Z,12.41
2018-11-11T06:33:19.418Z,12.49
2018-11-11T06:35:49.752Z,12.57
2018-11-11T06:38:26.139Z,12.65
2018-11-11T06:40:55.697Z,12.67
2018-11-11T06:43:25.399Z,12.70
2018-11-11T06:45:57.471Z,12.67
2018-11-11T06:48:30.662Z,12.66
2018-11-11T06:51:01.706Z,12.67
2018-11-11T06:54:39.816Z,12.65
2018-11-11T06:57:09.445Z,12.53
2018-11-11T06:59:40.278Z,12.59
2018-11-11T07:02:20.612Z,12.58
2018-11-11T07:05:05.548Z,12.58
2018-11-11T07:07:42.307Z,12.54
2018-11-11T07:10:12.614Z,12.54
2018-11-11T07:12:43.027Z,12.58
2018-11-11T07:15:31.697Z,12.60
2018-11-11T07:18:16.361Z,12.60
2018-11-11T07:20:49.909Z,12.60
2018-11-11T07:23:19.611Z,12.58
2018-11-11T07:26:02.681Z,12.59
2018-11-11T07:28:37.045Z,12.64
2018-11-11T07:31:08.086Z,12.75
2018-11-11T07:33:38.991Z,12.78
2018-11-11T07:36:12.744Z,12.85
2018-11-11T07:38:46.544Z,13.01
2018-11-11T07:41:24.447Z,13.17
2018-11-11T07:43:59.012Z,13.21
2018-11-11T07:46:34.973Z,13.14
2018-11-11T07:52:09.130Z,13.23
2018-11-11T07:59:55.088Z,13.10
2018-11-11T08:02:26.803Z,13.15
2018-11-11T08:05:01.710Z,13.21
2018-11-11T08:07:34.550Z,13.29
2018-11-11T08:10:15.074Z,13.32
2018-11-11T08:12:45.606Z,13.38
2018-11-11T08:15:17.383Z,13.44
2018-11-11T08:18:03.854Z,13.41
2018-11-11T08:20:34.716Z,13.41
2018-11-11T08:23:08.503Z,13.42
2018-11-11T08:25:43.017Z,13.41
2018-11-11T08:28:14.286Z,13.47
2018-11-11T08:30:44.009Z,13.56
2018-11-11T08:33:28.877Z,13.63
2018-11-11T08:36:17.499Z,13.83
2018-11-11T08:38:49.693Z,14.05
2018-11-11T08:41:30.492Z,14.14
2018-11-11T08:44:12.745Z,14.24
2018-11-11T08:46:50.565Z,14.35
2018-11-11T08:52:25.087Z,14.43
2018-11-11T08:55:06.549Z,14.47
2018-11-11T08:57:59.393Z,14.45
2018-11-11T09:00:33.411Z,14.38
2018-11-11T09:03:07.891Z,14.28
2018-11-11T09:05:46.464Z,14.25
2018-11-11T09:16:07.675Z,14.22
2018-11-11T09:18:40.345Z,14.35
2018-11-11T09:21:20.926Z,14.45
2018-11-11T09:23:57.355Z,14.57
2018-11-11T09:26:30.827Z,14.67
2018-11-11T09:31:47.249Z,14.46
2018-11-11T09:34:30.413Z,14.37
2018-11-11T09:37:17.887Z,14.41
2018-11-11T09:39:50.983Z,14.56
2018-11-11T09:42:39.739Z,14.83
2018-11-11T09:45:20.145Z,14.85
2018-11-11T09:47:52.505Z,14.94
2018-11-11T09:53:55.065Z,15.01
2018-11-11T09:56:31.828Z,14.97
2018-11-11T09:59:14.866Z,14.98
2018-11-11T10:01:46.705Z,14.98
2018-11-11T10:04:22.081Z,14.96
2018-11-11T10:06:59.882Z,14.98
2018-11-11T10:09:40.490Z,14.86
2018-11-11T10:19:58.304Z,14.70
2018-11-11T10:22:39.213Z,14.13
2018-11-11T10:26:17.466Z,14.11
2018-11-11T10:29:06.222Z,14.03
2018-11-11T10:31:47.498Z,14.06
2018-11-11T10:34:34.077Z,14.06
2018-11-11T10:37:22.194Z,14.11
2018-11-11T10:40:03.559Z,14.18
2018-11-11T10:42:50.311Z,14.24
2018-11-11T10:45:51.534Z,14.27
2018-11-11T10:48:37.941Z,14.37
2018-11-11T10:51:10.265Z,14.35
2018-11-11T10:53:45.361Z,14.39
2018-11-11T10:56:20.461Z,14.37
2018-11-11T10:58:51.044Z,14.42
2018-11-11T11:01:35.851Z,14.57
2018-11-11T11:04:05.888Z,14.75
2018-11-11T11:06:44.024Z,14.98
2018-11-11T11:09:24.393Z,15.25
2018-11-11T11:11:55.448Z,15.30
2018-11-11T11:17:13.280Z,15.07
2018-11-11T11:20:01.928Z,14.97
2018-11-11T11:22:52.166Z,15.03
2018-11-11T11:25:36.580Z,15.10
2018-11-11T11:28:20.497Z,15.26
2018-11-11T11:30:50.936Z,15.35
2018-11-11T11:33:26.136Z,15.36
2018-11-11T11:36:06.897Z,15.25
2018-11-11T11:38:42.047Z,15.04
2018-11-11T11:41:26.678Z,14.82
2018-11-11T11:44:04.779Z,14.83
2018-11-11T11:49:19.135Z,14.97
2018-11-11T11:51:49.182Z,15.13
2018-11-11T11:54:20.148Z,15.36
2018-11-11T11:56:50.672Z,15.54
2018-11-11T11:59:30.351Z,15.71
2018-11-11T12:04:49.824Z,15.66
2018-11-11T12:07:22.324Z,15.64
2018-11-11T12:09:52.319Z,15.72
2018-11-11T12:12:30.013Z,15.82
2018-11-11T12:15:00.676Z,15.87
2018-11-11T12:17:31.693Z,15.88
2018-11-11T12:20:02.089Z,16.11
2018-11-11T12:22:35.107Z,16.59
2018-11-11T12:25:17.420Z,17.10
2018-11-11T12:27:52.877Z,17.49
2018-11-11T12:30:30.504Z,17.53
2018-11-11T12:33:08.275Z,17.14
2018-11-11T12:35:45.284Z,16.94
2018-11-11T12:38:16.124Z,16.89
2018-11-11T12:40:48.086Z,16.89
2018-11-11T12:43:28.508Z,16.88
2018-11-11T12:46:12.660Z,16.75
2018-11-11T12:48:47.278Z,16.65
2018-11-11T12:51:25.892Z,16.74
2018-11-11T12:53:57.044Z,16.77
2018-11-11T12:56:32.757Z,16.75
2018-11-11T12:59:04.549Z,16.71
2018-11-11T13:01:36.499Z,16.71
2018-11-11T13:04:08.080Z,16.76
2018-11-11T13:06:39.530Z,16.79
2018-11-11T13:09:14.584Z,16.74
2018-11-11T13:11:45.046Z,16.76
2018-11-11T13:14:14.695Z,16.79
2018-11-11T13:16:47.216Z,16.74
2018-11-11T13:19:17.818Z,16.74
2018-11-11T13:21:50.840Z,16.71
2018-11-11T13:24:21.871Z,16.69
2018-11-11T13:26:51.763Z,16.59
2018-11-11T13:29:22.366Z,16.48
2018-11-11T13:31:53.095Z,16.41
2018-11-11T13:34:24.517Z,16.39
2018-11-11T13:36:59.025Z,16.40
2018-11-11T13:39:29.374Z,16.44
2018-11-11T13:42:00.266Z,16.51
2018-11-11T13:44:32.021Z,16.59
2018-11-11T13:47:02.820Z,16.64
2018-11-11T13:49:34.533Z,16.70
2018-11-11T13:52:07.370Z,16.73
2018-11-11T13:54:39.361Z,16.69
2018-11-11T13:57:11.842Z,16.74
2018-11-11T13:59:41.844Z,16.73
2018-11-11T14:02:13.733Z,16.68
2018-11-11T14:04:43.404Z,16.63
2018-11-11T14:09:58.949Z,16.58
2018-11-11T14:12:32.311Z,16.56
2018-11-11T14:15:03.585Z,16.58
2018-11-11T14:17:34.400Z,16.64
2018-11-11T14:20:09.187Z,16.65
2018-11-11T14:22:42.465Z,16.70
2018-11-11T14:25:22.205Z,16.73
2018-11-11T14:27:56.080Z,16.74
2018-11-11T14:30:27.991Z,16.74
2018-11-11T14:32:59.295Z,16.79
2018-11-11T14:35:30.777Z,16.80
2018-11-11T14:38:01.532Z,16.78
2018-11-11T14:40:33.563Z,16.76
2018-11-11T14:43:08.274Z,16.74
2018-11-11T14:45:38.122Z,16.70
2018-11-11T14:48:08.455Z,16.69
2018-11-11T14:50:41.474Z,16.69
2018-11-11T14:53:12.026Z,16.65
2018-11-11T14:55:41.889Z,16.61
2018-11-11T14:58:13.501Z,16.55
2018-11-11T15:00:44.451Z,16.50
2018-11-11T15:03:17.982Z,16.45
2018-11-11T15:05:47.733Z,16.42
2018-11-11T15:08:18.031Z,16.43
2018-11-11T15:11:03.124Z,16.44
2018-11-11T15:13:41.368Z,16.41
2018-11-11T15:16:12.340Z,16.36
2018-11-11T15:18:43.039Z,16.34
2018-11-11T15:21:14.943Z,16.35
2018-11-11T15:23:45.186Z,16.34
2018-11-11T15:26:15.134Z,16.29
2018-11-11T15:28:48.027Z,16.23
2018-11-11T15:31:19.178Z,16.15
2018-11-11T15:33:48.933Z,16.08
2018-11-11T15:36:19.751Z,16.04
2018-11-11T15:38:50.295Z,16.02
2018-11-11T15:41:23.577Z,15.99
2018-11-11T15:43:56.195Z,15.92
2018-11-11T15:46:26.816Z,15.89
2018-11-11T15:48:56.850Z,15.88
2018-11-11T15:51:26.533Z,15.83
2018-11-11T15:53:56.339Z,15.82
2018-11-11T15:56:31.064Z,15.82
2018-11-11T15:59:09.406Z,15.83
2018-11-11T16:01:41.424Z,15.83
2018-11-11T16:04:11.249Z,15.84
2018-11-11T16:06:46.687Z,15.83
2018-11-11T16:09:18.890Z,15.81
2018-11-11T16:11:53.171Z,15.82
2018-11-11T16:14:30.568Z,15.83
2018-11-11T16:17:12.491Z,15.85
2018-11-11T16:19:43.083Z,15.82
2018-11-11T16:22:14.603Z,15.79
2018-11-11T16:24:44.519Z,15.74
2018-11-11T16:27:18.005Z,15.70
2018-11-11T16:29:47.759Z,15.67
2018-11-11T16:32:19.260Z,15.62
2018-11-11T16:34:49.711Z,15.59
2018-11-11T16:37:22.553Z,15.57
2018-11-11T16:39:54.585Z,15.57
2018-11-11T16:42:25.337Z,15.57
2018-11-11T16:44:57.692Z,15.58
2018-11-11T16:47:28.839Z,15.61
2018-11-11T16:50:01.363Z,15.65
2018-11-11T16:52:33.639Z,15.65
2018-11-11T16:55:04.508Z,15.67
2018-11-11T16:57:35.163Z,15.69
2018-11-11T17:00:07.685Z,15.70
2018-11-11T17:02:37.642Z,15.68
2018-11-11T17:05:29.582Z,15.67
2018-11-11T17:08:09.383Z,15.54
2018-11-11T17:10:42.228Z,15.45
2018-11-11T17:13:14.770Z,15.39
2018-11-11T17:15:55.674Z,15.31
2018-11-11T17:18:28.829Z,15.25
2018-11-11T17:20:58.441Z,15.23
2018-11-11T17:23:29.401Z,15.22
2018-11-11T17:26:02.226Z,15.20
2018-11-11T17:28:33.028Z,15.18
2018-11-11T17:31:04.410Z,15.20
2018-11-11T17:33:34.530Z,15.20
2018-11-11T17:36:06.399Z,15.19
2018-11-11T17:38:41.143Z,15.17
2018-11-11T17:41:36.608Z,15.17
2018-11-11T17:44:13.364Z,15.14
2018-11-11T17:46:43.327Z,15.14
2018-11-11T17:49:20.926Z,15.15
2018-11-11T17:51:52.357Z,15.13
2018-11-11T17:54:22.160Z,15.07
2018-11-11T18:02:21.396Z,14.74
2018-11-11T18:04:56.584Z,14.68
2018-11-11T18:07:26.553Z,14.67
2018-11-11T18:10:01.290Z,14.66
2018-11-11T18:12:34.575Z,14.67
2018-11-11T18:15:18.984Z,14.68
2018-11-11T18:18:03.897Z,14.64
2018-11-11T18:20:42.764Z,14.61
2018-11-11T18:23:21.394Z,14.57
2018-11-11T18:29:07.014Z,14.51
2018-11-11T18:31:44.477Z,14.51
2018-11-11T18:34:26.466Z,14.56
2018-11-11T18:46:42.382Z,14.61
2018-11-11T18:49:22.730Z,14.53
2018-11-11T18:52:02.706Z,14.54
2018-11-11T18:54:39.680Z,14.57
2018-11-11T18:57:39.566Z,14.62
2018-11-11T19:00:45.265Z,14.62
2018-11-11T19:03:28.053Z,14.59
2018-11-11T19:09:16.231Z,14.55
2018-11-11T19:11:50.694Z,14.55
2018-11-11T19:14:22.514Z,14.59
2018-11-11T19:16:52.899Z,14.58
2018-11-11T19:19:23.213Z,14.59
2018-11-11T19:21:54.414Z,14.62
2018-11-11T19:24:25.808Z,14.64
2018-11-11T19:26:56.414Z,14.62
2018-11-11T19:29:29.919Z,14.64
2018-11-11T19:32:01.876Z,14.65
2018-11-11T19:34:32.731Z,14.64
2018-11-11T19:37:04.517Z,14.65
2018-11-11T19:39:36.170Z,14.67
2018-11-11T19:42:09.387Z,14.72
2018-11-11T19:44:43.115Z,14.71
2018-11-11T19:47:19.689Z,14.73
2018-11-11T19:49:54.139Z,14.73
2018-11-11T19:52:26.741Z,14.70
2018-11-11T19:54:57.806Z,14.69
2018-11-11T19:57:30.704Z,14.74
2018-11-11T20:00:02.881Z,14.76
2018-11-11T20:02:34.892Z,14.76
2018-11-11T20:05:08.260Z,14.78
2018-11-11T20:07:45.431Z,14.80
2018-11-11T20:10:24.944Z,14.79
2018-11-11T20:12:59.395Z,14.79
2018-11-11T20:15:35.064Z,14.76
2018-11-11T20:18:07.456Z,14.78
2018-11-11T20:20:40.772Z,14.75
2018-11-11T20:23:12.022Z,14.78
2018-11-11T20:25:44.165Z,14.78
2018-11-11T20:28:33.796Z,14.76
2018-11-11T20:31:11.954Z,14.72
2018-11-11T20:34:03.446Z,14.75
2018-11-11T20:36:44.938Z,14.75
2018-11-11T20:39:36.428Z,14.75
2018-11-11T20:42:07.680Z,14.69
2018-11-11T20:44:43.230Z,14.69
2018-11-11T20:47:21.130Z,14.66
2018-11-11T20:49:56.841Z,14.66
2018-11-11T20:52:28.366Z,14.68
2018-11-11T20:55:00.890Z,14.71
2018-11-11T20:57:33.853Z,14.74
2018-11-11T21:03:29.015Z,14.72
2018-11-11T21:06:01.080Z,14.68
2018-11-11T21:08:35.813Z,14.66
2018-11-11T21:11:07.427Z,14.63
2018-11-11T21:13:40.048Z,14.61
2018-11-11T21:16:11.046Z,14.59
2018-11-11T21:18:41.917Z,14.58
2018-11-11T21:21:15.054Z,14.57
2018-11-11T21:23:45.863Z,14.54
2018-11-11T21:26:31.553Z,14.51
2018-11-11T21:29:02.183Z,14.50
2018-11-11T21:31:34.045Z,14.49
2018-11-11T21:34:06.966Z,14.45
2018-11-11T21:36:37.935Z,14.48
2018-11-11T21:39:11.731Z,14.44
2018-11-11T21:41:42.881Z,14.48
2018-11-11T21:44:13.956Z,14.50
2018-11-11T21:46:52.981Z,14.53
2018-11-11T21:49:25.132Z,14.52
2018-11-11T21:51:57.678Z,14.49
2018-11-11T21:54:30.363Z,14.46
2018-11-11T21:57:02.143Z,14.48
2018-11-11T21:59:34.621Z,14.48
2018-11-11T22:02:06.023Z,14.47
2018-11-11T22:04:37.647Z,14.47
2018-11-11T22:07:08.163Z,14.44
2018-11-11T22:09:45.805Z,14.43
2018-11-11T22:12:17.287Z,14.41
2018-11-11T22:14:53.126Z,14.47
2018-11-11T22:17:44.291Z,14.48
2018-11-11T22:20:15.248Z,14.53
2018-11-11T22:22:48.085Z,14.55
2018-11-11T22:25:21.426Z,14.60
2018-11-11T22:27:51.350Z,14.58
2018-11-11T22:30:25.185Z,14.61
2018-11-11T22:32:57.091Z,14.67
2018-11-11T22:35:26.956Z,14.71
2018-11-11T22:37:56.869Z,14.70
2018-11-11T22:40:27.782Z,14.71
2018-11-11T22:42:58.240Z,14.73
2018-11-11T22:45:28.352Z,14.73
2018-11-11T22:47:58.183Z,14.76
2018-11-11T22:50:29.517Z,14.73
2018-11-11T22:53:00.508Z,14.71
2018-11-11T22:55:32.105Z,14.71
2018-11-11T22:58:05.394Z,14.71
2018-11-11T23:00:34.990Z,14.74
2018-11-11T23:03:04.918Z,14.77
2018-11-11T23:05:36.684Z,14.81
2018-11-11T23:08:08.562Z,14.82
2018-11-11T23:10:40.082Z,14.82
2018-11-11T23:13:12.772Z,14.80
2018-11-11T23:15:46.679Z,14.77
2018-11-11T23:18:17.754Z,14.73
2018-11-11T23:20:59.509Z,14.69
2018-11-11T23:23:31.033Z,14.68
2018-11-11T23:26:03.709Z,14.67
2018-11-11T23:28:34.868Z,14.68
2018-11-11T23:31:05.848Z,14.73
2018-11-11T23:33:36.677Z,14.78
2018-11-11T23:36:08.558Z,14.87
2018-11-11T23:38:39.524Z,14.90
2018-11-11T23:41:12.097Z,14.97
2018-11-11T23:43:46.646Z,15.01
2018-11-11T23:46:17.009Z,15.07
2018-11-11T23:48:47.660Z,15.12
2018-11-11T23:51:17.436Z,15.16
2018-11-11T23:53:48.177Z,15.21
2018-11-11T23:56:21.630Z,15.24
2018-11-11T23:58:52.144Z,15.24
